createdAt,value
2023-04-15T00:02:49.040Z,55.20
2023-04-15T00:07:51.422Z,55.80
2023-04-15T00:12:53.241Z,56.60
2023-04-15T00:17:55.092Z,56.50
2023-04-15T00:22:56.968Z,56.10
2023-04-15T00:27:58.823Z,56.10
2023-04-15T00:33:02.392Z,55.80
2023-04-15T00:38:04.897Z,55.70
2023-04-15T00:43:07.089Z,56.10
2023-04-15T00:48:09.840Z,55.90
2023-04-15T00:53:12.404Z,55.00
2023-04-15T00:58:15.218Z,54.80
2023-04-15T01:03:17.216Z,55.10
2023-04-15T01:08:19.044Z,54.90
2023-04-15T01:13:22.211Z,54.50
2023-04-15T01:18:24.623Z,54.70
2023-04-15T01:23:26.441Z,54.10
2023-04-15T01:28:28.556Z,54.00
2023-04-15T01:33:30.708Z,54.50
2023-04-15T01:38:33.371Z,53.90
2023-04-15T01:43:37.459Z,53.80
2023-04-15T01:48:39.429Z,53.80
2023-04-15T01:53:41.410Z,53.40
2023-04-15T01:58:43.226Z,53.00
2023-04-15T02:03:45.475Z,53.30
2023-04-15T02:08:47.514Z,53.30
2023-04-15T02:13:49.269Z,52.90
2023-04-15T02:18:52.051Z,52.50
2023-04-15T02:23:56.501Z,52.20
2023-04-15T02:28:58.553Z,51.60
2023-04-15T02:34:02.981Z,51.80
2023-04-15T02:39:04.749Z,51.40
2023-04-15T02:44:11.242Z,50.90
2023-04-15T02:49:13.497Z,51.00
2023-04-15T02:54:17.180Z,50.40
2023-04-15T02:59:18.892Z,51.70
2023-04-15T03:04:20.956Z,51.20
2023-04-15T03:09:22.711Z,50.50
2023-04-15T03:14:24.564Z,50.10
2023-04-15T03:19:26.445Z,51.20
2023-04-15T03:24:29.765Z,50.50
2023-04-15T03:29:31.667Z,50.50
2023-04-15T03:34:33.389Z,51.20
2023-04-15T03:39:35.776Z,50.70
2023-04-15T03:44:37.693Z,50.80
2023-04-15T03:49:39.779Z,50.30
2023-04-15T03:54:41.701Z,50.30
2023-04-15T03:59:44.133Z,50.40
2023-04-15T04:04:45.932Z,49.10
2023-04-15T04:09:47.856Z,49.60
2023-04-15T04:14:49.597Z,49.40
2023-04-15T04:19:51.571Z,49.30
2023-04-15T04:24:53.347Z,48.90
2023-04-15T04:29:55.135Z,49.00
2023-04-15T04:34:57.017Z,49.50
2023-04-15T04:39:58.723Z,48.80
2023-04-15T04:45:00.486Z,50.00
2023-04-15T04:50:02.729Z,49.20
2023-04-15T04:55:05.358Z,48.00
2023-04-15T05:00:09.061Z,47.90
2023-04-15T05:05:12.070Z,47.60
2023-04-15T05:10:15.397Z,47.30
2023-04-15T05:15:17.136Z,47.70
2023-04-15T05:20:19.072Z,47.20
2023-04-15T05:25:21.285Z,44.70
2023-04-15T05:30:22.985Z,41.90
2023-04-15T05:35:24.767Z,39.90
2023-04-15T05:40:28.174Z,42.70
2023-04-15T05:45:30.110Z,42.30
2023-04-15T05:50:31.922Z,43.70
2023-04-15T05:55:33.620Z,44.50
2023-04-15T06:00:36.478Z,43.80
2023-04-15T06:05:38.582Z,42.10
2023-04-15T06:10:40.936Z,40.00
2023-04-15T06:15:43.212Z,40.30
2023-04-15T06:20:44.977Z,39.00
2023-04-15T06:25:46.876Z,38.50
2023-04-15T06:30:48.616Z,38.60
2023-04-15T06:35:51.179Z,37.60
2023-04-15T06:40:53.087Z,33.60
2023-04-15T06:45:54.985Z,36.90
2023-04-15T06:50:58.485Z,38.60
2023-04-15T06:56:00.614Z,37.50
2023-04-15T07:01:03.543Z,40.40
2023-04-15T07:06:07.101Z,40.70
2023-04-15T07:11:09.128Z,40.90
2023-04-15T07:16:10.880Z,41.70
2023-04-15T07:21:12.757Z,42.30
2023-04-15T07:26:14.497Z,42.50
2023-04-15T07:31:17.178Z,42.30
2023-04-15T07:36:19.775Z,43.00
2023-04-15T07:41:22.496Z,43.40
2023-04-15T07:46:24.815Z,43.10
2023-04-15T07:51:26.715Z,43.50
2023-04-15T07:56:28.550Z,43.00
2023-04-15T08:01:31.572Z,42.80
2023-04-15T08:06:33.362Z,43.00
2023-04-15T08:11:35.150Z,42.60
2023-04-15T08:16:37.519Z,42.40
2023-04-15T08:21:39.370Z,42.70
2023-04-15T08:26:42.003Z,43.10
2023-04-15T08:31:44.899Z,43.70
2023-04-15T08:36:46.969Z,43.20
2023-04-15T08:41:56.652Z,43.10
2023-04-15T08:47:02.891Z,43.10
2023-04-15T08:52:06.345Z,43.50
2023-04-15T08:57:08.153Z,44.30
2023-04-15T09:02:09.999Z,43.40
2023-04-15T09:07:12.191Z,42.60
2023-04-15T09:12:14.102Z,42.30
2023-04-15T09:17:20.632Z,40.10
2023-04-15T09:22:22.684Z,38.30
2023-04-15T09:27:24.428Z,39.20
2023-04-15T09:32:26.674Z,39.40
2023-04-15T09:37:37.874Z,39.00
2023-04-15T09:43:00.387Z,39.50
2023-04-15T09:48:18.410Z,39.20
2023-04-15T09:53:21.702Z,39.60
2023-04-15T09:58:28.604Z,36.80
2023-04-15T10:03:33.333Z,29.90
2023-04-15T10:08:35.597Z,32.60
2023-04-15T10:13:39.260Z,30.10
2023-04-15T10:18:49.579Z,33.10
2023-04-15T10:23:51.646Z,35.90
2023-04-15T10:28:53.801Z,36.20
2023-04-15T10:33:56.323Z,36.20
2023-04-15T10:38:58.199Z,35.20
2023-04-15T10:44:01.749Z,34.00
2023-04-15T10:49:13.694Z,35.60
2023-04-15T10:54:30.964Z,35.40
2023-04-15T10:59:36.107Z,37.70
2023-04-15T11:05:00.231Z,36.40
2023-04-15T11:10:02.626Z,36.90
2023-04-15T11:15:26.244Z,37.50
2023-04-15T11:20:29.114Z,37.50
2023-04-15T11:25:35.648Z,37.30
2023-04-15T11:30:38.831Z,37.30
2023-04-15T11:35:43.977Z,37.70
2023-04-15T11:40:47.257Z,36.70
2023-04-15T11:46:00.451Z,37.70
2023-04-15T11:51:04.947Z,36.40
2023-04-15T11:56:08.746Z,36.40
2023-04-15T12:01:10.704Z,37.00
2023-04-15T12:06:19.462Z,36.60
2023-04-15T12:11:27.484Z,37.20
2023-04-15T12:16:29.321Z,36.40
2023-04-15T12:21:35.551Z,37.50
2023-04-15T12:26:38.987Z,37.70
2023-04-15T12:32:11.202Z,36.30
2023-04-15T12:37:14.398Z,36.40
2023-04-15T12:42:17.800Z,37.70
2023-04-15T12:47:19.795Z,36.90
2023-04-15T12:52:22.001Z,36.80
2023-04-15T12:57:23.758Z,36.50
2023-04-15T13:02:28.599Z,36.70
2023-04-15T13:07:31.643Z,36.40
2023-04-15T13:12:36.454Z,36.30
2023-04-15T13:17:38.970Z,35.70
2023-04-15T13:22:41.472Z,36.00
2023-04-15T13:27:43.682Z,36.50
2023-04-15T13:32:45.748Z,35.90
2023-04-15T13:37:48.059Z,37.00
2023-04-15T13:42:51.939Z,36.50
2023-04-15T13:47:53.826Z,36.50
2023-04-15T13:52:55.667Z,36.30
2023-04-15T13:57:57.917Z,35.90
2023-04-15T14:02:59.836Z,36.00
2023-04-15T14:08:01.861Z,36.90
2023-04-15T14:13:03.672Z,36.10
2023-04-15T14:18:05.656Z,36.00
2023-04-15T14:23:07.747Z,35.10
2023-04-15T14:28:09.509Z,35.10
2023-04-15T14:33:11.311Z,35.40
2023-04-15T14:38:13.099Z,35.60
2023-04-15T14:43:14.978Z,34.20
2023-04-15T14:48:16.717Z,35.30
2023-04-15T14:53:18.497Z,35.10
2023-04-15T14:58:20.693Z,34.90
2023-04-15T15:03:23.661Z,34.10
2023-04-15T15:08:25.572Z,34.90
2023-04-15T15:13:27.301Z,33.30
2023-04-15T15:18:29.044Z,32.20
2023-04-15T15:23:32.060Z,32.00
2023-04-15T15:28:35.008Z,32.00
2023-04-15T15:33:36.802Z,33.70
2023-04-15T15:38:40.180Z,32.80
2023-04-15T15:43:41.946Z,33.10
2023-04-15T15:48:44.168Z,33.10
2023-04-15T15:53:45.963Z,33.80
2023-04-15T15:58:47.956Z,34.50
2023-04-15T16:03:49.894Z,34.40
2023-04-15T16:08:51.890Z,35.10
2023-04-15T16:13:54.104Z,35.20
2023-04-15T16:18:57.337Z,35.40
2023-04-15T16:23:59.236Z,36.00
2023-04-15T16:29:02.044Z,36.20
2023-04-15T16:34:03.899Z,37.00
2023-04-15T16:39:06.158Z,37.60
2023-04-15T16:44:09.066Z,38.80
2023-04-15T16:49:11.509Z,36.90
2023-04-15T16:54:13.512Z,36.70
2023-04-15T16:59:15.346Z,37.00
2023-04-15T17:04:17.244Z,37.20
2023-04-15T17:09:19.041Z,36.90
2023-04-15T17:14:20.898Z,37.40
2023-04-15T17:19:22.757Z,37.30
2023-04-15T17:24:24.953Z,37.80
2023-04-15T17:29:27.065Z,37.70
2023-04-15T17:34:49.792Z,38.90
2023-04-15T17:39:51.008Z,38.70
2023-04-15T17:44:52.785Z,39.50
2023-04-15T17:49:54.619Z,39.80
2023-04-15T17:54:56.465Z,39.10
2023-04-15T17:59:58.467Z,39.30
2023-04-15T18:05:00.331Z,39.20
2023-04-15T18:10:02.378Z,38.70
2023-04-15T18:15:04.819Z,38.60
2023-04-15T18:20:07.266Z,39.10
2023-04-15T18:25:09.256Z,38.00
2023-04-15T18:30:12.001Z,38.30
2023-04-15T18:35:13.913Z,38.00
2023-04-15T18:40:16.263Z,38.70
2023-04-15T18:45:18.440Z,38.40
2023-04-15T18:50:20.580Z,38.80
2023-04-15T18:55:23.506Z,38.60
2023-04-15T19:00:25.419Z,38.20
2023-04-15T19:05:27.343Z,38.40
2023-04-15T19:10:29.177Z,38.60
2023-04-15T19:15:30.984Z,39.10
2023-04-15T19:20:35.634Z,39.20
2023-04-15T19:25:39.264Z,39.60
2023-04-15T19:30:41.574Z,39.50
2023-04-15T19:35:43.334Z,40.40
2023-04-15T19:40:45.078Z,40.40
2023-04-15T19:45:49.334Z,40.80
2023-04-15T19:50:51.673Z,41.30
2023-04-15T19:55:53.463Z,42.20
2023-04-15T20:00:55.865Z,42.40
2023-04-15T20:05:57.638Z,43.50
2023-04-15T20:11:01.125Z,44.60
2023-04-15T20:16:03.138Z,45.00
2023-04-15T20:21:05.061Z,45.40
2023-04-15T20:26:07.317Z,46.00
2023-04-15T20:31:09.097Z,46.50
2023-04-15T20:36:10.909Z,46.30
2023-04-15T20:41:12.869Z,46.40
2023-04-15T20:46:21.117Z,46.70
2023-04-15T20:51:23.296Z,47.00
2023-04-15T20:56:25.184Z,46.90
2023-04-15T21:01:27.548Z,46.80
2023-04-15T21:06:29.369Z,47.80
2023-04-15T21:11:53.226Z,48.10
2023-04-15T21:16:54.246Z,47.20
2023-04-15T21:21:56.103Z,50.30
2023-04-15T21:26:58.135Z,48.90
2023-04-15T21:31:59.962Z,47.60
2023-04-15T21:37:02.037Z,47.20
2023-04-15T21:42:03.908Z,47.60
2023-04-15T21:47:05.685Z,47.20
2023-04-15T21:52:07.517Z,47.90
2023-04-15T21:57:09.628Z,48.30
2023-04-15T22:02:11.768Z,47.70
2023-04-15T22:07:13.778Z,47.80
2023-04-15T22:12:15.696Z,47.90
2023-04-15T22:17:17.641Z,47.60
2023-04-15T22:22:19.487Z,47.70
2023-04-15T22:27:21.757Z,47.90
2023-04-15T22:32:23.521Z,48.00
2023-04-15T22:37:25.618Z,48.10
2023-04-15T22:42:27.612Z,48.50
2023-04-15T22:47:29.389Z,48.10
2023-04-15T22:52:31.495Z,47.60
2023-04-15T22:57:33.311Z,47.50
2023-04-15T23:02:35.377Z,48.40
2023-04-15T23:07:37.133Z,49.60
2023-04-15T23:12:39.031Z,51.30
2023-04-15T23:17:42.610Z,48.40
2023-04-15T23:22:44.723Z,51.10
2023-04-15T23:27:46.447Z,51.10
2023-04-15T23:32:48.369Z,52.00
2023-04-15T23:37:50.345Z,50.80
2023-04-15T23:42:52.228Z,50.80
2023-04-15T23:47:54.053Z,49.70
2023-04-15T23:52:56.089Z,50.70
2023-04-15T23:57:57.788Z,49.00
